createdAt,value
2022-08-08T00:00:55.026Z,15.60
2022-08-08T00:08:24.434Z,15.40
2022-08-08T00:11:18.622Z,15.30
2022-08-08T00:14:15.710Z,15.10
2022-08-08T00:17:22.483Z,15.00
2022-08-08T00:20:14.667Z,15.30
2022-08-08T00:23:08.037Z,15.10
2022-08-08T00:26:01.961Z,15.00
2022-08-08T00:28:53.131Z,15.20
2022-08-08T00:32:20.845Z,15.30
2022-08-08T00:35:30.410Z,15.40
2022-08-08T00:41:12.737Z,15.30
2022-08-08T00:42:59.633Z,15.00
2022-08-08T00:46:17.024Z,15.10
2022-08-08T00:49:42.302Z,14.90
2022-08-08T00:52:51.745Z,14.60
2022-08-08T00:56:30.251Z,14.70
2022-08-08T00:59:48.741Z,14.60
2022-08-08T01:03:57.376Z,14.50
2022-08-08T01:07:10.654Z,14.40
2022-08-08T01:10:52.221Z,14.60
2022-08-08T01:14:08.550Z,14.40
2022-08-08T01:17:55.653Z,14.30
2022-08-08T01:21:04.862Z,14.40
2022-08-08T01:24:27.320Z,14.60
2022-08-08T01:28:00.263Z,14.70
2022-08-08T01:32:13.806Z,14.80
2022-08-08T01:35:48.111Z,14.40
2022-08-08T01:39:34.843Z,14.40
2022-08-08T01:42:36.909Z,14.20
2022-08-08T01:45:58.336Z,13.90
2022-08-08T01:48:59.989Z,13.80
2022-08-08T01:52:27.566Z,13.90
2022-08-08T01:55:25.753Z,13.80
2022-08-08T01:58:38.388Z,14.00
2022-08-08T02:02:00.128Z,14.10
2022-08-08T02:05:01.665Z,14.10
2022-08-08T02:08:07.027Z,14.10
2022-08-08T02:11:23.543Z,14.30
2022-08-08T02:20:07.443Z,14.50
2022-08-08T02:23:04.581Z,14.40
2022-08-08T02:26:01.349Z,14.50
2022-08-08T02:29:46.798Z,14.50
2022-08-08T02:32:59.266Z,14.40
2022-08-08T02:36:04.962Z,14.30
2022-08-08T02:39:42.633Z,14.00
2022-08-08T02:44:34.691Z,14.00
2022-08-08T02:46:46.818Z,13.80
2022-08-08T02:50:04.878Z,13.70
2022-08-08T02:53:10.423Z,13.60
2022-08-08T02:56:39.343Z,13.50
2022-08-08T03:00:26.881Z,13.70
2022-08-08T03:05:02.701Z,13.80
2022-08-08T03:07:41.667Z,13.90
2022-08-08T03:11:31.791Z,13.80
2022-08-08T03:16:00.784Z,13.80
2022-08-08T03:18:07.398Z,13.70
2022-08-08T03:20:58.077Z,13.50
2022-08-08T03:23:59.942Z,13.60
2022-08-08T03:26:56.485Z,13.30
2022-08-08T03:29:56.453Z,13.20
2022-08-08T03:33:07.911Z,13.50
2022-08-08T03:36:19.508Z,13.60
2022-08-08T03:39:15.597Z,13.70
2022-08-08T03:42:28.115Z,13.80
2022-08-08T03:46:07.065Z,13.70
2022-08-08T03:53:47.796Z,13.30
2022-08-08T03:56:37.378Z,13.10
2022-08-08T03:59:30.719Z,13.00
2022-08-08T04:02:33.346Z,13.00
2022-08-08T04:05:28.873Z,13.00
2022-08-08T04:08:33.614Z,13.20
2022-08-08T04:11:25.512Z,13.30
2022-08-08T04:14:33.346Z,13.20
2022-08-08T04:17:46.425Z,13.20
2022-08-08T04:20:29.959Z,13.10
2022-08-08T04:23:18.256Z,13.40
2022-08-08T04:26:09.324Z,13.60
2022-08-08T04:28:57.977Z,13.70
2022-08-08T04:31:59.555Z,13.70
2022-08-08T04:34:55.670Z,13.70
2022-08-08T04:37:49.339Z,13.80
2022-08-08T04:40:40.284Z,13.50
2022-08-08T04:43:46.128Z,13.40
2022-08-08T04:46:39.498Z,13.40
2022-08-08T04:49:28.969Z,13.40
2022-08-08T04:52:35.571Z,13.50
2022-08-08T04:55:37.547Z,13.70
2022-08-08T04:58:34.404Z,13.80
2022-08-08T05:01:22.953Z,13.90
2022-08-08T05:05:02.371Z,14.00
2022-08-08T05:07:53.480Z,14.20
2022-08-08T05:10:43.839Z,14.40
2022-08-08T05:13:31.737Z,14.60
2022-08-08T05:16:51.481Z,14.70
2022-08-08T05:20:09.734Z,14.90
2022-08-08T05:22:37.571Z,15.10
2022-08-08T05:25:27.065Z,15.30
2022-08-08T05:28:55.941Z,15.40
2022-08-08T05:32:04.460Z,15.40
2022-08-08T05:34:50.472Z,15.70
2022-08-08T05:43:39.758Z,16.00
2022-08-08T05:46:17.797Z,16.20
2022-08-08T05:49:11.261Z,16.50
2022-08-08T05:51:59.946Z,16.70
2022-08-08T05:54:50.297Z,16.80
2022-08-08T05:58:05.417Z,16.90
2022-08-08T06:00:56.898Z,17.30
2022-08-08T06:03:53.514Z,18.00
2022-08-08T06:06:48.172Z,18.60
2022-08-08T06:09:59.177Z,19.00
2022-08-08T06:12:47.379Z,19.10
2022-08-08T06:20:28.908Z,19.60
2022-08-08T06:23:17.534Z,20.00
2022-08-08T06:26:38.490Z,20.50
2022-08-08T06:29:59.777Z,20.90
2022-08-08T06:37:55.967Z,22.00
2022-08-08T06:40:53.586Z,22.30
2022-08-08T06:48:58.425Z,22.30
2022-08-08T06:51:52.637Z,21.80
2022-08-08T06:54:49.002Z,21.90
2022-08-08T06:57:54.906Z,21.90
2022-08-08T07:00:48.851Z,21.60
2022-08-08T07:04:35.283Z,21.50
2022-08-08T07:06:57.242Z,21.60
2022-08-08T07:09:59.271Z,22.20
2022-08-08T07:12:54.479Z,22.30
2022-08-08T07:16:05.955Z,22.70
2022-08-08T07:19:07.277Z,23.70
2022-08-08T07:22:05.368Z,23.60
2022-08-08T07:25:06.811Z,23.30
2022-08-08T07:28:02.748Z,23.30
2022-08-08T07:30:58.741Z,23.60
2022-08-08T07:33:53.440Z,23.70
2022-08-08T07:36:50.257Z,23.70
2022-08-08T07:39:56.177Z,24.50
2022-08-08T07:42:53.030Z,23.90
2022-08-08T07:46:05.715Z,24.30
2022-08-08T07:48:51.074Z,23.60
2022-08-08T07:51:44.897Z,23.50
2022-08-08T07:54:49.167Z,23.90
2022-08-08T07:57:48.333Z,24.60
2022-08-08T08:00:41.796Z,25.20
2022-08-08T08:03:43.771Z,25.50
2022-08-08T08:11:53.811Z,25.10
2022-08-08T08:14:54.679Z,25.50
2022-08-08T08:17:49.393Z,25.20
2022-08-08T08:20:44.046Z,25.70
2022-08-08T08:23:41.087Z,26.20
2022-08-08T08:26:30.567Z,25.90
2022-08-08T08:29:19.503Z,26.20
2022-08-08T08:32:08.912Z,26.50
2022-08-08T08:34:58.942Z,26.20
2022-08-08T08:38:05.843Z,26.30
2022-08-08T08:40:54.210Z,26.20
2022-08-08T08:43:45.173Z,26.20
2022-08-08T08:46:34.991Z,26.00
2022-08-08T08:49:33.480Z,26.20
2022-08-08T08:57:42.381Z,27.10
2022-08-08T09:01:03.165Z,26.90
2022-08-08T09:03:50.403Z,27.10
2022-08-08T09:06:50.422Z,27.00
2022-08-08T09:09:47.718Z,27.20
2022-08-08T09:12:47.396Z,26.80
2022-08-08T09:15:41.518Z,27.30
2022-08-08T09:18:31.603Z,26.80
2022-08-08T09:21:59.393Z,26.60
2022-08-08T09:24:28.860Z,26.00
2022-08-08T09:31:56.915Z,25.70
2022-08-08T09:34:52.300Z,26.20
2022-08-08T09:38:01.165Z,26.50
2022-08-08T09:41:01.728Z,26.30
2022-08-08T09:44:05.233Z,26.90
2022-08-08T09:48:02.444Z,27.80
2022-08-08T09:50:16.149Z,27.90
2022-08-08T09:53:14.387Z,28.10
2022-08-08T09:56:21.626Z,28.30
2022-08-08T09:59:50.505Z,28.40
2022-08-08T10:02:29.397Z,27.90
2022-08-08T10:06:32.437Z,28.10
2022-08-08T10:09:30.605Z,28.50
2022-08-08T10:12:37.680Z,28.60
2022-08-08T10:15:26.865Z,28.70
2022-08-08T10:18:26.120Z,28.20
2022-08-08T10:21:22.599Z,28.30
2022-08-08T10:24:29.269Z,28.50
2022-08-08T10:27:43.158Z,28.50
2022-08-08T10:30:59.780Z,29.00
2022-08-08T10:34:19.024Z,29.10
2022-08-08T10:36:47.070Z,28.90
2022-08-08T10:39:54.475Z,29.40
2022-08-08T10:42:44.709Z,29.40
2022-08-08T10:45:55.719Z,29.20
2022-08-08T10:48:57.559Z,29.40
2022-08-08T10:51:50.918Z,29.50
2022-08-08T10:54:41.320Z,28.90
2022-08-08T10:57:45.382Z,28.80
2022-08-08T11:00:52.383Z,28.90
2022-08-08T11:04:01.137Z,28.90
2022-08-08T11:07:00.365Z,28.80
2022-08-08T11:09:47.957Z,28.40
2022-08-08T11:12:38.359Z,27.70
2022-08-08T11:15:58.844Z,28.20
2022-08-08T11:18:51.534Z,28.70
2022-08-08T11:21:45.239Z,28.50
2022-08-08T11:24:45.642Z,28.90
2022-08-08T11:27:37.289Z,28.00
2022-08-08T11:30:27.463Z,27.10
2022-08-08T11:33:19.883Z,27.10
2022-08-08T11:36:09.281Z,26.60
2022-08-08T11:39:01.495Z,26.50
2022-08-08T11:41:50.860Z,27.20
2022-08-08T11:44:41.071Z,27.90
2022-08-08T11:47:39.671Z,27.10
2022-08-08T11:50:52.471Z,27.20
2022-08-08T11:53:54.921Z,27.30
2022-08-08T11:56:46.333Z,27.00
2022-08-08T12:00:00.899Z,26.90
2022-08-08T12:03:00.894Z,26.90
2022-08-08T12:07:05.305Z,26.80
2022-08-08T12:10:12.847Z,26.80
2022-08-08T12:13:04.382Z,26.50
2022-08-08T12:15:53.647Z,26.20
2022-08-08T12:18:47.472Z,25.80
2022-08-08T12:22:00.008Z,25.90
2022-08-08T12:24:54.012Z,25.70
2022-08-08T12:27:45.761Z,25.50
2022-08-08T12:30:35.979Z,25.50
2022-08-08T12:33:37.093Z,25.70
2022-08-08T12:36:24.801Z,25.80
2022-08-08T12:40:00.976Z,25.60
2022-08-08T12:42:47.484Z,25.70
2022-08-08T12:45:59.129Z,26.10
2022-08-08T12:49:22.220Z,25.90
2022-08-08T12:52:01.978Z,25.50
2022-08-08T12:54:49.427Z,25.90
2022-08-08T12:57:56.080Z,26.00
2022-08-08T13:00:45.407Z,26.00
2022-08-08T13:10:10.992Z,26.70
2022-08-08T13:13:05.694Z,26.80
2022-08-08T13:15:56.701Z,26.80
2022-08-08T13:18:56.990Z,26.90
2022-08-08T13:22:16.492Z,27.00
2022-08-08T13:25:05.317Z,27.10
2022-08-08T13:27:54.663Z,26.80
2022-08-08T13:30:45.389Z,26.50
2022-08-08T13:33:42.629Z,26.80
2022-08-08T13:36:30.716Z,26.90
2022-08-08T13:39:44.031Z,26.90
2022-08-08T13:42:36.464Z,27.00
2022-08-08T13:45:24.370Z,26.90
2022-08-08T13:48:14.590Z,26.40
2022-08-08T13:51:33.998Z,26.40
2022-08-08T14:00:07.439Z,25.80
2022-08-08T14:03:00.129Z,25.70
2022-08-08T14:05:58.800Z,25.50
2022-08-08T14:08:50.693Z,25.40
2022-08-08T14:16:34.613Z,25.60
2022-08-08T14:19:57.127Z,25.40
2022-08-08T14:22:42.971Z,25.50
2022-08-08T14:25:31.799Z,25.70
2022-08-08T14:28:22.696Z,26.00
2022-08-08T14:31:23.252Z,26.10
2022-08-08T14:34:29.615Z,26.30
2022-08-08T14:37:18.383Z,26.50
2022-08-08T14:45:33.091Z,26.30
2022-08-08T14:48:52.562Z,26.20
2022-08-08T14:51:52.975Z,25.90
2022-08-08T14:54:47.618Z,25.90
2022-08-08T14:58:03.147Z,25.70
2022-08-08T15:01:23.306Z,25.80
2022-08-08T15:04:13.099Z,25.70
2022-08-08T15:07:00.600Z,25.70
2022-08-08T15:09:51.693Z,25.70
2022-08-08T15:12:39.478Z,25.90
2022-08-08T15:20:22.054Z,25.70
2022-08-08T15:23:12.738Z,25.80
2022-08-08T15:26:03.603Z,25.70
2022-08-08T15:28:52.991Z,25.70
2022-08-08T15:31:41.661Z,25.70
2022-08-08T15:34:48.907Z,25.70
2022-08-08T15:37:37.804Z,25.70
2022-08-08T15:40:28.421Z,25.70
2022-08-08T15:43:18.693Z,25.60
2022-08-08T15:46:27.319Z,25.60
2022-08-08T15:49:22.411Z,25.60
2022-08-08T15:52:12.771Z,25.60
2022-08-08T15:55:01.803Z,25.70
2022-08-08T15:57:50.825Z,25.60
2022-08-08T16:00:38.209Z,25.60
2022-08-08T16:03:34.725Z,25.50
2022-08-08T16:13:20.819Z,25.60
2022-08-08T16:15:03.838Z,25.80
2022-08-08T16:18:06.329Z,25.90
2022-08-08T16:21:00.310Z,25.90
2022-08-08T16:29:15.286Z,25.70
2022-08-08T16:32:03.003Z,25.90
2022-08-08T16:34:55.358Z,26.00
2022-08-08T16:37:47.649Z,26.00
2022-08-08T16:40:34.947Z,26.00
2022-08-08T16:43:22.779Z,26.00
2022-08-08T16:46:36.966Z,26.00
2022-08-08T16:49:18.991Z,26.20
2022-08-08T16:55:03.609Z,26.10
2022-08-08T16:55:54.428Z,26.20
2022-08-08T16:58:21.839Z,26.20
2022-08-08T17:01:15.840Z,26.20
2022-08-08T17:04:03.691Z,26.10
2022-08-08T17:06:50.882Z,26.10
2022-08-08T17:09:45.474Z,26.20
2022-08-08T17:12:33.983Z,26.10
2022-08-08T17:15:23.925Z,25.90
2022-08-08T17:18:15.972Z,25.80
2022-08-08T17:21:03.642Z,25.70
2022-08-08T17:23:58.410Z,25.60
2022-08-08T17:26:50.250Z,25.60
2022-08-08T17:35:54.662Z,25.50
2022-08-08T17:38:04.547Z,25.40
2022-08-08T17:40:51.883Z,25.30
2022-08-08T17:44:01.319Z,25.30
2022-08-08T17:46:50.647Z,25.30
2022-08-08T17:50:52.577Z,25.20
2022-08-08T17:53:43.250Z,25.20
2022-08-08T17:56:31.536Z,25.20
2022-08-08T17:59:19.209Z,25.20
2022-08-08T18:02:16.419Z,25.20
2022-08-08T18:10:31.279Z,25.10
2022-08-08T18:13:19.232Z,25.00
2022-08-08T18:16:06.998Z,25.00
2022-08-08T18:18:57.374Z,24.90
2022-08-08T18:27:06.357Z,24.60
2022-08-08T18:30:06.107Z,24.50
2022-08-08T18:32:54.622Z,24.40
2022-08-08T18:35:48.510Z,24.30
2022-08-08T18:43:54.127Z,24.30
2022-08-08T18:46:55.151Z,24.10
2022-08-08T18:49:58.828Z,24.00
2022-08-08T18:52:47.363Z,23.90
2022-08-08T18:56:05.486Z,23.70
2022-08-08T18:58:55.282Z,23.60
2022-08-08T19:02:27.256Z,23.50
2022-08-08T19:04:49.574Z,23.40
2022-08-08T19:07:38.888Z,23.30
2022-08-08T19:10:41.386Z,23.20
2022-08-08T19:18:51.794Z,23.00
2022-08-08T19:21:49.729Z,23.00
2022-08-08T19:24:48.730Z,22.90
2022-08-08T19:27:56.072Z,22.90
2022-08-08T19:36:08.790Z,22.70
2022-08-08T19:38:56.982Z,22.60
2022-08-08T19:41:44.728Z,22.70
2022-08-08T19:44:45.618Z,22.50
2022-08-08T19:53:46.761Z,22.40
2022-08-08T19:56:25.797Z,22.40
2022-08-08T19:59:23.607Z,22.30
2022-08-08T20:02:12.535Z,22.30
2022-08-08T20:10:29.815Z,22.30
2022-08-08T20:14:12.739Z,22.20
2022-08-08T20:16:29.522Z,22.10
2022-08-08T20:19:16.783Z,22.10
2022-08-08T20:22:05.170Z,22.00
2022-08-08T20:25:00.710Z,22.00
2022-08-08T20:27:54.056Z,22.00
2022-08-08T20:30:56.059Z,21.90
2022-08-08T20:34:28.127Z,22.00
2022-08-08T20:37:53.253Z,21.90
2022-08-08T20:40:41.758Z,21.80
2022-08-08T20:43:44.006Z,21.70
2022-08-08T20:46:35.578Z,21.70
2022-08-08T20:49:25.160Z,21.60
2022-08-08T20:57:43.887Z,21.60
2022-08-08T21:00:41.273Z,21.40
2022-08-08T21:03:29.804Z,21.30
2022-08-08T21:06:17.186Z,21.30
2022-08-08T21:09:04.567Z,21.30
2022-08-08T21:12:44.525Z,21.20
2022-08-08T21:16:04.195Z,21.10
2022-08-08T21:18:41.285Z,21.20
2022-08-08T21:21:39.564Z,21.10
2022-08-08T21:24:30.558Z,21.10
2022-08-08T21:32:37.272Z,21.00
2022-08-08T21:36:17.235Z,20.90
2022-08-08T21:38:33.355Z,20.90
2022-08-08T21:41:38.481Z,20.80
2022-08-08T21:48:55.593Z,20.70
2022-08-08T21:54:31.358Z,20.60
2022-08-08T21:55:02.962Z,20.60
2022-08-08T21:58:05.627Z,20.60
2022-08-08T22:00:56.697Z,20.50
2022-08-08T22:08:52.738Z,20.40
2022-08-08T22:12:02.856Z,20.40
2022-08-08T22:14:50.227Z,20.30
2022-08-08T22:18:05.431Z,20.30
2022-08-08T22:21:08.296Z,20.30
2022-08-08T22:23:59.597Z,20.30
2022-08-08T22:27:02.580Z,20.30
2022-08-08T22:30:01.048Z,20.30
2022-08-08T22:32:49.861Z,20.20
2022-08-08T22:36:05.602Z,20.20
2022-08-08T22:38:48.492Z,20.10
2022-08-08T22:41:37.715Z,20.10
2022-08-08T22:44:26.519Z,20.00
2022-08-08T22:47:17.635Z,20.00
2022-08-08T22:50:26.369Z,20.00
2022-08-08T22:58:39.407Z,20.00
2022-08-08T23:02:01.960Z,20.00
2022-08-08T23:04:34.608Z,19.90
2022-08-08T23:07:22.228Z,19.90
2022-08-08T23:10:29.262Z,19.80
2022-08-08T23:13:16.404Z,19.80
2022-08-08T23:16:39.188Z,19.80
2022-08-08T23:19:12.585Z,19.80
2022-08-08T23:22:04.101Z,19.80
2022-08-08T23:24:52.130Z,19.80
2022-08-08T23:27:46.310Z,19.80
2022-08-08T23:30:33.909Z,19.80
2022-08-08T23:34:15.099Z,19.70
2022-08-08T23:36:29.762Z,19.60
2022-08-08T23:39:17.062Z,19.60
2022-08-08T23:49:06.331Z,19.40
2022-08-08T23:50:57.425Z,19.40
2022-08-08T23:54:06.086Z,19.40
2022-08-08T23:56:52.447Z,19.30
